Time;durP1;ratioP1;P1;durP2;ratioP2;P2;SDS_P1;SDS_P2;PMS_P1;PMS_P2;Temp;Humidity;BMP_temperature;BMP_pressure;BME280_temperature;BME280_humidity;BME280_pressure;Samples;Min_cycle;Max_cycle;Signal;HPM_P1;HPM_P2
2022/02/15 00:00:25;;;;;;;8.57;3.33;;;;;;;11.90;100.00;100487.00;5047620;28;20053;-51
2022/02/15 00:02:51;;;;;;;6.57;3.80;;;;;;;11.92;100.00;100492.16;5040704;28;20120;-47
2022/02/15 00:05:17;;;;;;;16.87;4.63;;;;;;;11.86;100.00;100491.13;5040463;28;20068;-49
2022/02/15 00:07:43;;;;;;;13.38;4.72;;;;;;;11.45;100.00;100487.78;5047533;28;20043;-50
2022/02/15 00:10:09;;;;;;;10.65;4.15;;;;;;;11.52;100.00;100484.25;5035442;28;20040;-46
2022/02/15 00:12:35;;;;;;;9.18;4.00;;;;;;;11.57;100.00;100498.66;5046147;28;20034;-46
2022/02/15 00:15:02;;;;;;;10.45;4.53;;;;;;;11.91;100.00;100495.88;5041440;28;20125;-47
2022/02/15 00:17:27;;;;;;;13.57;4.57;;;;;;;11.89;100.00;100506.78;5038587;28;20050;-53
2022/02/15 00:19:53;;;;;;;13.53;4.60;;;;;;;12.13;100.00;100501.75;5048554;28;20285;-49
2022/02/15 00:22:18;;;;;;;16.30;5.20;;;;;;;11.78;100.00;100504.78;5035581;28;20086;-50
2022/02/15 00:24:44;;;;;;;13.57;4.67;;;;;;;12.06;100.00;100500.97;5045114;28;20180;-49
2022/02/15 00:27:10;;;;;;;16.27;5.32;;;;;;;11.57;100.00;100504.03;5042438;28;20048;-49
2022/02/15 00:29:35;;;;;;;13.97;5.20;;;;;;;12.43;100.00;100511.91;5037703;28;20041;-50
2022/02/15 00:32:00;;;;;;;19.10;5.10;;;;;;;12.52;100.00;100509.78;5048302;28;20037;-50
2022/02/15 00:34:26;;;;;;;16.43;5.07;;;;;;;12.24;100.00;100515.53;5036472;28;20154;-49
2022/02/15 00:36:51;;;;;;;24.20;6.10;;;;;;;12.33;100.00;100524.97;5043360;28;20117;-48
2022/02/15 00:39:17;;;;;;;17.93;7.63;;;;;;;12.10;100.00;100515.59;5025764;28;20099;-45
2022/02/15 00:41:42;;;;;;;11.10;5.20;;;;;;;12.11;100.00;100519.91;5036887;28;20034;-48
2022/02/15 00:44:08;;;;;;;12.10;5.17;;;;;;;11.86;100.00;100519.78;5032431;28;20107;-47
2022/02/15 00:46:33;;;;;;;9.00;4.10;;;;;;;11.93;100.00;100528.63;5028234;28;20029;-49
2022/02/15 00:48:58;;;;;;;10.75;4.70;;;;;;;11.82;100.00;100521.25;5040564;28;20028;-51
2022/02/15 00:51:25;;;;;;;14.88;4.90;;;;;;;11.98;100.00;100525.28;5038892;28;20033;-47
2022/02/15 00:53:50;;;;;;;12.27;4.65;;;;;;;12.04;100.00;100529.84;5029166;28;20048;-51
2022/02/15 00:56:16;;;;;;;12.33;5.17;;;;;;;12.40;100.00;100528.44;5030097;28;20044;-46
2022/02/15 00:58:41;;;;;;;13.93;5.15;;;;;;;11.77;100.00;100521.88;5038255;28;20083;-47
2022/02/15 01:01:07;;;;;;;14.83;4.80;;;;;;;11.79;100.00;100521.66;5041176;28;20362;-46
2022/02/15 01:03:32;;;;;;;16.30;4.60;;;;;;;12.20;100.00;100528.53;5045284;28;20041;-47
2022/02/15 01:05:59;;;;;;;14.40;5.10;;;;;;;12.25;100.00;100525.22;5038651;28;20041;-49
2022/02/15 01:08:26;;;;;;;10.80;4.65;;;;;;;12.29;100.00;100523.75;5033161;28;20103;-48
2022/02/15 01:10:51;;;;;;;7.70;3.70;;;;;;;11.58;100.00;100523.56;5050273;28;20123;-48
2022/02/15 01:13:17;;;;;;;12.57;4.70;;;;;;;11.63;100.00;100529.13;5043839;28;20108;-49
2022/02/15 01:15:43;;;;;;;10.13;3.70;;;;;;;11.60;100.00;100530.38;5050254;28;20044;-47
2022/02/15 01:18:09;;;;;;;11.88;5.03;;;;;;;11.67;100.00;100524.16;5042531;28;20041;-47
2022/02/15 01:20:34;;;;;;;10.47;3.97;;;;;;;11.84;100.00;100529.88;5039730;28;20459;-46
2022/02/15 01:23:00;;;;;;;8.80;3.60;;;;;;;11.67;100.00;100534.88;5055093;28;20276;-49
2022/02/15 01:25:26;;;;;;;16.20;3.45;;;;;;;11.54;100.00;100536.56;5042584;28;20095;-47
2022/02/15 01:27:53;;;;;;;9.60;3.85;;;;;;;11.55;100.00;100532.88;5032918;28;20033;-50
2022/02/15 01:30:19;;;;;;;9.68;3.20;;;;;;;11.65;100.00;100542.31;5038175;28;20112;-49
2022/02/15 01:32:45;;;;;;;8.00;3.30;;;;;;;11.54;100.00;100547.28;5048026;28;20109;-48
2022/02/15 01:35:10;;;;;;;8.50;2.75;;;;;;;11.54;100.00;100552.66;5027595;28;20033;-50
2022/02/15 01:37:36;;;;;;;5.93;2.42;;;;;;;11.26;100.00;100551.00;5040583;28;20383;-46
2022/02/15 01:40:03;;;;;;;7.50;2.73;;;;;;;11.48;100.00;100556.13;5033036;28;20098;-51
2022/02/15 01:42:29;;;;;;;7.45;2.42;;;;;;;11.47;100.00;100555.34;5021717;28;20083;-50
2022/02/15 01:44:55;;;;;;;13.88;2.50;;;;;;;11.39;100.00;100555.53;5028490;28;20049;-48
2022/02/15 01:47:26;;;;;;;5.27;2.00;;;;;;;11.66;100.00;100557.34;5028562;28;20046;-51
2022/02/15 01:49:52;;;;;;;12.15;2.50;;;;;;;11.82;100.00;100559.59;5020943;28;20029;-48
2022/02/15 01:52:20;;;;;;;11.80;2.75;;;;;;;11.33;100.00;100546.50;5050825;28;20030;-47
2022/02/15 01:54:49;;;;;;;8.05;1.85;;;;;;;11.33;100.00;100554.53;5023849;28;20087;-50
2022/02/15 01:57:15;;;;;;;4.72;1.83;;;;;;;11.46;100.00;100555.53;5025952;28;20047;-47
2022/02/15 01:59:42;;;;;;;14.15;2.20;;;;;;;11.23;100.00;100559.47;5031326;28;20159;-48
2022/02/15 02:02:09;;;;;;;12.07;3.90;;;;;;;11.19;100.00;100571.63;5019732;28;20041;-50
2022/02/15 02:07:20;;;;;;;8.30;2.40;;;;;;;11.51;100.00;100565.63;5028138;28;19924;-49
2022/02/15 02:09:46;;;;;;;8.60;2.43;;;;;;;11.32;100.00;100560.91;5039126;28;20037;-46
2022/02/15 02:12:11;;;;;;;11.03;2.10;;;;;;;11.46;100.00;100566.25;5033048;28;20781;-46
2022/02/15 02:15:09;;;;;;;4.78;2.30;;;;;;;11.54;100.00;100578.59;5023818;28;20128;-52
2022/02/15 02:17:54;;;;;;;7.70;2.58;;;;;;;11.34;100.00;100574.06;5037997;28;20045;-48
2022/02/15 02:20:21;;;;;;;12.60;2.30;;;;;;;11.94;100.00;100583.03;5032675;28;20030;-51
2022/02/15 02:22:48;;;;;;;6.95;3.30;;;;;;;11.58;100.00;100577.13;5041252;28;20029;-48
2022/02/15 02:25:16;;;;;;;;;;;;;;;11.68;100.00;100579.38;5025774;28;20033;-50
2022/02/15 02:27:42;;;;;;;9.73;2.03;;;;;;;11.66;100.00;100592.16;5030621;28;19916;-47
2022/02/15 02:30:08;;;;;;;3.97;2.10;;;;;;;11.88;100.00;100595.44;5037252;28;20045;-47
2022/02/15 02:32:41;;;;;;;4.78;1.92;;;;;;;11.97;100.00;100594.16;5029836;28;20064;-49
2022/02/15 02:35:10;;;;;;;12.40;2.65;;;;;;;11.30;100.00;100599.63;5025694;28;20051;-47
2022/02/15 02:37:37;;;;;;;10.25;2.67;;;;;;;11.94;100.00;100594.59;5022534;28;20571;-48
2022/02/15 02:40:07;;;;;;;10.32;3.47;;;;;;;11.58;100.00;100594.03;5032668;28;20033;-48
2022/02/15 02:42:35;;;;;;;5.72;2.55;;;;;;;11.55;100.00;100593.63;5021033;28;20034;-49
2022/02/15 02:45:04;;;;;;;11.32;3.08;;;;;;;11.55;100.00;100591.78;5027140;28;20148;-52
2022/02/15 02:47:31;;;;;;;6.07;2.40;;;;;;;11.40;100.00;100599.19;5028493;28;20052;-48
2022/02/15 02:49:56;;;;;;;6.40;2.47;;;;;;;11.71;100.00;100598.56;5037373;28;20064;-48
2022/02/15 02:52:23;;;;;;;7.45;2.50;;;;;;;11.70;100.00;100601.44;5049806;28;20061;-51
2022/02/15 02:54:49;;;;;;;9.73;2.53;;;;;;;11.67;100.00;100612.56;5022713;28;20497;-50
2022/02/15 02:57:16;;;;;;;10.52;2.63;;;;;;;11.53;100.00;100603.72;5042867;28;20034;-46
2022/02/15 02:59:46;;;;;;;14.17;3.37;;;;;;;11.52;100.00;100602.09;5030005;28;20123;-49
2022/02/15 03:02:14;;;;;;;10.68;3.15;;;;;;;11.53;100.00;100604.53;5018882;28;20659;-46
2022/02/15 03:04:39;;;;;;;11.75;3.58;;;;;;;11.69;100.00;100603.31;5029767;28;20049;-48
2022/02/15 03:07:05;;;;;;;9.68;3.13;;;;;;;11.80;100.00;100606.34;5024691;28;20029;-47
2022/02/15 03:09:32;;;;;;;9.45;3.78;;;;;;;11.79;100.00;100610.06;5022590;28;20044;-47
2022/02/15 03:11:58;;;;;;;6.57;3.05;;;;;;;11.67;100.00;100608.06;5031728;28;20033;-51
2022/02/15 03:14:23;;;;;;;8.82;3.10;;;;;;;11.72;100.00;100612.75;5018626;28;20040;-51
2022/02/15 03:16:54;;;;;;;14.35;4.00;;;;;;;11.82;100.00;100610.50;5027451;28;20048;-50
2022/02/15 03:19:20;;;;;;;11.88;4.28;;;;;;;11.71;100.00;100616.47;5026380;28;20124;-46
2022/02/15 03:21:45;;;;;;;11.63;3.60;;;;;;;11.64;100.00;100627.19;5020480;28;20120;-48
2022/02/15 03:24:11;;;;;;;16.77;3.80;;;;;;;11.44;100.00;100629.88;5031543;28;20040;-50
2022/02/15 03:26:42;;;;;;;15.30;3.90;;;;;;;11.69;100.00;100624.72;5020773;28;20033;-50
2022/02/15 03:29:10;;;;;;;8.98;3.92;;;;;;;11.96;100.00;100621.16;5025681;28;20494;-51
2022/02/15 03:31:38;;;;;;;12.25;3.50;;;;;;;11.55;100.00;100629.28;5028339;28;20036;-48
2022/02/15 03:34:03;;;;;;;24.40;4.55;;;;;;;11.96;100.00;100626.53;5035900;28;20513;-48
2022/02/15 03:36:32;;;;;;;12.68;4.28;;;;;;;11.90;100.00;100634.38;5030353;28;20038;-47
2022/02/15 03:39:05;;;;;;;11.13;4.63;;;;;;;11.68;100.00;100641.84;5023565;28;20059;-48
2022/02/15 03:44:21;;;;;;;9.63;4.28;;;;;;;11.57;100.00;100656.69;5030920;28;20037;-49
2022/02/15 03:46:50;;;;;;;14.20;4.45;;;;;;;11.95;100.00;100657.03;5021527;28;20032;-47
2022/02/15 03:49:17;;;;;;;13.55;5.13;;;;;;;11.62;100.00;100667.59;5023812;28;20033;-50
2022/02/15 03:51:47;;;;;;;16.90;5.97;;;;;;;11.45;100.00;100667.19;5029218;28;20060;-48
2022/02/15 03:54:13;;;;;;;13.52;5.57;;;;;;;11.41;100.00;100671.28;5035697;28;20060;-47
2022/02/15 03:56:39;;;;;;;16.73;5.65;;;;;;;11.56;100.00;100668.41;5028933;28;20037;-47
2022/02/15 03:59:04;;;;;;;15.47;5.53;;;;;;;11.71;100.00;100678.09;5023114;28;20063;-48
2022/02/15 04:01:30;;;;;;;13.35;5.70;;;;;;;11.91;100.00;100676.22;5022375;28;20294;-52
2022/02/15 04:03:56;;;;;;;13.15;6.55;;;;;;;11.69;100.00;100680.16;5030557;28;20064;-49
2022/02/15 04:06:21;;;;;;;16.40;7.10;;;;;;;11.82;100.00;100682.84;5017873;28;20052;-48
2022/02/15 04:08:47;;;;;;;18.63;7.33;;;;;;;12.27;100.00;100684.84;5028017;28;20041;-47
2022/02/15 04:11:13;;;;;;;20.85;8.32;;;;;;;11.70;100.00;100682.63;5024245;28;20120;-48
2022/02/15 04:13:39;;;;;;;20.98;8.68;;;;;;;11.63;100.00;100687.16;5038679;28;20120;-52
2022/02/15 04:16:05;;;;;;;18.55;8.43;;;;;;;11.95;100.00;100686.50;5030551;28;20059;-46
2022/02/15 04:18:32;;;;;;;21.35;9.23;;;;;;;11.89;100.00;100694.34;5018473;28;20106;-45
2022/02/15 04:20:58;;;;;;;25.50;8.25;;;;;;;11.68;100.00;100686.53;5026055;28;20029;-46
2022/02/15 04:23:24;;;;;;;21.02;9.20;;;;;;;11.99;100.00;100698.47;5025573;28;20040;-48
2022/02/15 04:25:51;;;;;;;20.73;10.82;;;;;;;11.77;100.00;100704.06;5036861;28;20048;-50
2022/02/15 04:28:39;;;;;;;25.42;9.80;;;;;;;11.62;100.00;100705.09;5014149;28;20042;-52
2022/02/15 04:31:15;;;;;;;25.73;10.43;;;;;;;11.77;100.00;100709.44;5034145;28;20464;-54
2022/02/15 04:33:40;;;;;;;23.47;9.90;;;;;;;12.15;100.00;100708.78;5020609;28;20061;-53
2022/02/15 04:36:07;;;;;;;24.60;10.18;;;;;;;11.96;100.00;100714.97;5030215;28;20289;-50
2022/02/15 04:38:33;;;;;;;25.30;10.80;;;;;;;12.16;100.00;100712.31;5017990;28;20397;-48
2022/02/15 04:41:00;;;;;;;25.15;10.90;;;;;;;11.92;100.00;100722.59;5026264;28;20029;-52
2022/02/15 04:43:27;;;;;;;22.23;10.68;;;;;;;11.87;100.00;100717.84;5041994;28;20098;-48
2022/02/15 04:45:53;;;;;;;26.60;12.27;;;;;;;11.95;100.00;100713.31;5018756;28;20025;-45
2022/02/15 04:48:19;;;;;;;31.13;11.13;;;;;;;12.29;100.00;100716.81;5030026;28;20413;-48
2022/02/15 04:50:44;;;;;;;27.57;11.60;;;;;;;11.93;100.00;100724.25;5020108;28;20029;-49
2022/02/15 04:53:10;;;;;;;28.57;12.37;;;;;;;11.86;100.00;100721.56;5024497;28;20278;-47
2022/02/15 04:55:35;;;;;;;25.35;12.02;;;;;;;11.89;100.00;100726.50;5026978;28;20079;-48
2022/02/15 04:58:03;;;;;;;27.48;11.55;;;;;;;12.02;100.00;100727.59;5017174;28;20033;-51
2022/02/15 05:00:42;;;;;;;24.02;11.65;;;;;;;11.99;100.00;100727.94;5028428;28;20060;-45
2022/02/15 05:03:16;;;;;;;28.35;12.77;;;;;;;11.96;100.00;100731.03;5023835;28;20127;-52
2022/02/15 05:05:44;;;;;;;25.98;13.05;;;;;;;12.03;100.00;100743.44;5020076;28;20026;-47
2022/02/15 05:08:13;;;;;;;25.05;10.70;;;;;;;11.61;100.00;100745.47;5030285;28;20120;-52
2022/02/15 05:10:41;;;;;;;33.93;12.27;;;;;;;11.65;100.00;100745.88;5018519;28;20537;-48
2022/02/15 05:13:08;;;;;;;28.35;12.00;;;;;;;12.01;100.00;100739.34;5042728;28;20033;-47
2022/02/15 05:16:00;;;;;;;24.50;10.82;;;;;;;12.03;100.00;100742.63;5044467;28;20055;-49
2022/02/15 05:18:33;;;;;;;31.67;11.77;;;;;;;11.83;100.00;100754.16;5017581;28;20120;-50
2022/02/15 05:21:07;;;;;;;33.58;13.43;;;;;;;11.66;100.00;100745.69;5023563;28;20611;-45
2022/02/15 05:23:37;;;;;;;35.33;12.73;;;;;;;11.55;100.00;100749.81;5033130;28;20057;-47
2022/02/15 05:26:03;;;;;;;25.58;11.68;;;;;;;11.75;100.00;100759.69;5017017;28;20107;-50
2022/02/15 05:28:48;;;;;;;30.35;12.82;;;;;;;11.42;100.00;100753.28;5016355;28;20037;-49
2022/02/15 05:31:14;;;;;;;26.20;11.70;;;;;;;11.97;100.00;100752.28;5013617;28;20527;-49
2022/02/15 05:33:42;;;;;;;35.17;12.10;;;;;;;11.91;100.00;100751.25;5023646;28;20044;-48
2022/02/15 05:36:09;;;;;;;24.27;10.32;;;;;;;12.02;100.00;100755.19;5026801;28;20046;-48
2022/02/15 05:38:39;;;;;;;26.95;11.98;;;;;;;11.86;100.00;100758.25;5028435;28;20030;-46
2022/02/15 05:41:06;;;;;;;29.27;12.93;;;;;;;11.50;100.00;100759.47;5022005;28;20040;-47
2022/02/15 05:43:33;;;;;;;30.40;12.13;;;;;;;11.77;100.00;100758.47;5021081;28;20029;-52
2022/02/15 05:46:03;;;;;;;30.70;12.05;;;;;;;12.09;100.00;100751.69;5029626;28;20033;-50
2022/02/15 05:48:37;;;;;;;29.02;13.73;;;;;;;12.08;100.00;100750.03;5031204;28;20037;-48
2022/02/15 05:51:12;;;;;;;28.60;11.85;;;;;;;12.07;100.00;100749.22;5022821;28;20043;-48
2022/02/15 05:53:53;;;;;;;29.17;12.70;;;;;;;11.65;100.00;100767.31;5021615;28;20029;-51
2022/02/15 05:56:24;;;;;;;28.23;13.35;;;;;;;11.84;100.00;100765.66;5035714;28;20206;-51
2022/02/15 05:59:15;;;;;;;31.55;12.25;;;;;;;11.88;100.00;100773.09;5026958;28;20037;-47
2022/02/15 06:01:51;;;;;;;31.10;12.68;;;;;;;11.76;100.00;100769.38;5031661;28;20064;-46
2022/02/15 06:04:18;;;;;;;33.85;12.68;;;;;;;11.98;100.00;100772.69;5032842;28;20497;-52
2022/02/15 06:06:54;;;;;;;31.13;13.32;;;;;;;12.37;100.00;100764.84;5035399;28;20025;-51
2022/02/15 06:09:20;;;;;;;39.08;13.57;;;;;;;12.07;100.00;100769.81;5026049;28;20501;-51
2022/02/15 06:11:47;;;;;;;29.40;11.23;;;;;;;12.11;100.00;100771.06;5030368;28;20034;-52
2022/02/15 06:14:13;;;;;;;35.22;12.82;;;;;;;11.55;100.00;100781.09;5019691;28;20044;-47
2022/02/15 06:16:38;;;;;;;24.30;12.10;;;;;;;11.78;100.00;100786.09;5031428;28;20037;-48
2022/02/15 06:19:20;;;;;;;33.35;12.82;;;;;;;12.08;100.00;100777.66;5025492;28;20489;-49
2022/02/15 06:21:47;;;;;;;29.88;11.50;;;;;;;11.62;100.00;100785.44;5035755;28;20401;-53
2022/02/15 06:24:20;;;;;;;22.35;11.50;;;;;;;12.08;100.00;100791.06;5036275;28;20041;-50
2022/02/15 06:26:51;;;;;;;32.28;11.60;;;;;;;12.13;100.00;100787.78;5029841;28;20109;-50
2022/02/15 06:29:29;;;;;;;22.10;11.05;;;;;;;12.33;100.00;100788.56;5045303;28;20041;-48
2022/02/15 06:32:01;;;;;;;23.88;10.88;;;;;;;12.54;100.00;100793.91;5020449;28;20084;-48
2022/02/15 06:34:27;;;;;;;34.45;11.98;;;;;;;12.28;100.00;100788.38;5032192;28;20041;-46
2022/02/15 06:36:57;;;;;;;34.78;11.40;;;;;;;11.88;100.00;100797.22;5022817;28;20516;-51
2022/02/15 06:39:25;;;;;;;26.35;9.73;;;;;;;12.04;100.00;100798.69;5041421;28;20115;-50
2022/02/15 06:41:54;;;;;;;30.63;9.55;;;;;;;11.94;100.00;100803.63;5030853;28;20043;-49
2022/02/15 06:44:20;;;;;;;36.40;9.45;;;;;;;11.97;100.00;100802.38;5019022;28;20033;-50
2022/02/15 06:46:50;;;;;;;24.45;9.10;;;;;;;12.12;100.00;100811.06;5043095;28;20053;-46
2022/02/15 06:49:24;;;;;;;24.95;8.45;;;;;;;11.78;100.00;100812.88;5033764;28;20032;-51
2022/02/15 06:52:09;;;;;;;27.58;9.60;;;;;;;11.65;100.00;100815.53;5049691;28;20044;-48
2022/02/15 06:54:35;;;;;;;28.35;9.38;;;;;;;12.09;100.00;100814.16;5025599;28;20257;-51
2022/02/15 06:57:07;;;;;;;26.98;9.13;;;;;;;11.73;100.00;100815.31;5026218;28;20025;-49
2022/02/15 06:59:34;;;;;;;22.45;8.93;;;;;;;12.00;100.00;100820.75;5041245;28;20025;-47
2022/02/15 07:01:59;;;;;;;26.20;7.70;;;;;;;12.01;100.00;100822.41;5031455;28;20029;-47
2022/02/15 07:04:29;;;;;;;24.83;7.95;;;;;;;12.21;100.00;100824.25;5025666;28;20049;-45
2022/02/15 07:06:56;;;;;;;38.15;10.10;;;;;;;12.17;100.00;100824.69;5025631;28;20138;-48
2022/02/15 07:09:22;;;;;;;25.08;8.73;;;;;;;11.97;100.00;100823.81;5042905;28;20041;-45
2022/02/15 07:12:07;;;;;;;29.80;9.15;;;;;;;12.05;100.00;100829.00;5031587;28;20048;-50
2022/02/15 07:14:45;;;;;;;28.13;7.88;;;;;;;12.29;100.00;100837.47;5032093;28;20059;-51
2022/02/15 07:17:14;;;;;;;25.23;8.57;;;;;;;11.89;100.00;100839.06;5024086;28;20052;-49
2022/02/15 07:19:40;;;;;;;34.97;11.00;;;;;;;12.50;100.00;100838.28;5023369;28;20034;-49
2022/02/15 07:22:25;;;;;;;22.00;6.97;;;;;;;11.95;100.00;100841.94;5032926;28;20047;-50
2022/02/15 07:25:04;;;;;;;21.42;7.45;;;;;;;11.90;100.00;100846.06;5023331;28;20029;-48
2022/02/15 07:27:39;;;;;;;20.75;6.70;;;;;;;11.48;100.00;100848.03;5034718;28;20029;-50
2022/02/15 07:30:09;;;;;;;25.17;6.68;;;;;;;11.62;100.00;100854.25;5018054;28;20083;-49
2022/02/15 07:32:54;;;;;;;19.45;8.45;;;;;;;12.06;100.00;100860.16;5028292;28;20029;-48
2022/02/15 07:35:20;;;;;;;21.27;6.97;;;;;;;11.98;100.00;100857.63;5024112;28;20509;-49
2022/02/15 07:37:49;;;;;;;23.67;6.10;;;;;;;11.33;100.00;100862.41;5021446;28;20053;-44
2022/02/15 07:40:19;;;;;;;35.78;8.88;;;;;;;11.61;100.00;100869.50;5049940;28;20116;-45
2022/02/15 07:42:45;;;;;;;14.20;6.05;;;;;;;11.56;100.00;100863.94;5049503;28;20033;-43
2022/02/15 07:45:18;;;;;;;17.92;8.10;;;;;;;11.50;100.00;100866.59;5023883;28;20406;-45
2022/02/15 07:47:47;;;;;;;15.82;5.43;;;;;;;11.28;100.00;100870.19;5045059;28;20033;-43
2022/02/15 07:50:15;;;;;;;19.98;5.57;;;;;;;11.33;100.00;100873.13;5049584;28;20120;-44
2022/02/15 07:52:42;;;;;;;27.60;5.72;;;;;;;11.29;100.00;100879.88;5039784;28;20510;-45
2022/02/15 07:55:08;;;;;;;21.70;5.53;;;;;;;11.78;100.00;100879.88;5049303;28;20040;-43
2022/02/15 07:57:33;;;;;;;34.35;11.55;;;;;;;11.55;100.00;100881.03;5048751;28;20051;-42
2022/02/15 07:59:58;;;;;;;27.90;6.10;;;;;;;11.62;100.00;100884.56;5036508;28;20045;-47
2022/02/15 08:02:24;;;;;;;19.47;4.60;;;;;;;11.57;100.00;100892.38;5044701;28;20086;-44
2022/02/15 08:04:49;;;;;;;20.47;6.57;;;;;;;11.53;100.00;100896.47;5028665;28;20509;-43
2022/02/15 08:07:15;;;;;;;20.70;4.57;;;;;;;11.63;100.00;100901.44;5023346;28;20109;-45
2022/02/15 08:09:40;;;;;;;17.90;4.80;;;;;;;11.79;100.00;100911.00;5039219;28;20273;-44
2022/02/15 08:12:11;;;;;;;17.40;5.85;;;;;;;12.15;100.00;100909.84;5047990;28;20063;-46
2022/02/15 08:14:37;;;;;;;18.88;4.18;;;;;;;11.79;100.00;100910.16;5031352;28;20038;-44
2022/02/15 08:17:03;;;;;;;21.08;5.97;;;;;;;11.70;100.00;100904.16;5031240;28;20535;-49
2022/02/15 08:19:28;;;;;;;17.83;5.38;;;;;;;11.85;100.00;100918.22;5042096;28;20099;-45
2022/02/15 08:21:56;;;;;;;23.65;4.40;;;;;;;12.14;100.00;100918.91;5037110;28;20033;-44
2022/02/15 08:24:22;;;;;;;15.32;4.75;;;;;;;12.02;100.00;100915.19;5047490;28;20082;-45
2022/02/15 08:26:49;;;;;;;15.30;4.13;;;;;;;12.60;100.00;100920.00;5036640;28;20029;-48
2022/02/15 08:29:15;;;;;;;16.65;4.65;;;;;;;12.23;100.00;100900.78;5042832;28;20061;-49
2022/02/15 08:31:40;;;;;;;18.02;6.20;;;;;;;12.55;100.00;100916.28;5039998;28;20065;-49
2022/02/15 08:34:06;;;;;;;13.32;3.85;;;;;;;12.71;100.00;100918.53;5047500;28;20040;-45
2022/02/15 08:36:31;;;;;;;16.27;4.50;;;;;;;12.45;100.00;100922.84;5034821;28;20124;-45
2022/02/15 08:38:56;;;;;;;18.07;4.00;;;;;;;12.89;100.00;100927.78;5045143;28;20055;-46
2022/02/15 08:41:22;;;;;;;19.40;4.10;;;;;;;13.05;100.00;100921.19;5040784;28;20033;-49
2022/02/15 08:43:48;;;;;;;8.52;3.05;;;;;;;12.77;100.00;100931.13;5038229;28;20044;-45
2022/02/15 08:46:13;;;;;;;16.73;3.80;;;;;;;13.04;100.00;100933.78;5047569;28;20033;-43
2022/02/15 08:48:40;;;;;;;15.95;3.10;;;;;;;12.51;100.00;100920.41;5035003;28;20029;-46
2022/02/15 08:51:07;;;;;;;13.83;3.87;;;;;;;13.46;100.00;100933.47;5043941;28;20049;-45
2022/02/15 08:53:32;;;;;;;13.18;3.55;;;;;;;13.82;100.00;100928.56;5042224;28;20032;-44
2022/02/15 08:55:58;;;;;;;17.45;3.70;;;;;;;13.59;100.00;100927.22;5036651;28;20037;-44
2022/02/15 08:58:24;;;;;;;11.90;3.08;;;;;;;13.39;100.00;100935.34;5047749;28;20115;-47
2022/02/15 09:00:50;;;;;;;21.30;4.68;;;;;;;12.97;100.00;100924.91;5045027;28;20112;-47
2022/02/15 09:03:17;;;;;;;18.53;3.43;;;;;;;12.53;100.00;100940.59;5031110;28;20044;-46
2022/02/15 09:05:42;;;;;;;14.53;4.27;;;;;;;12.60;100.00;100936.09;5043813;28;20032;-49
2022/02/15 09:08:08;;;;;;;13.27;3.70;;;;;;;12.97;100.00;100937.50;5035338;28;20029;-47
2022/02/15 09:10:37;;;;;;;12.70;3.50;;;;;;;13.52;100.00;100947.13;5046330;28;20751;-46
2022/02/15 09:13:03;;;;;;;13.43;3.53;;;;;;;14.31;100.00;100930.75;5037568;28;20087;-51
2022/02/15 09:15:30;;;;;;;10.43;2.90;;;;;;;13.61;100.00;100929.69;5051031;28;20032;-49
2022/02/15 09:17:56;;;;;;;16.80;3.20;;;;;;;13.05;100.00;100935.41;5036764;28;20057;-49
2022/02/15 09:20:23;;;;;;;10.93;3.13;;;;;;;13.30;100.00;100936.59;5047601;28;20301;-47
2022/02/15 09:22:48;;;;;;;14.30;4.47;;;;;;;13.17;100.00;100935.59;5035559;28;20068;-46
2022/02/15 09:25:16;;;;;;;17.27;3.30;;;;;;;13.62;100.00;100945.63;5035689;28;20473;-47
2022/02/15 09:27:42;;;;;;;9.18;2.80;;;;;;;13.54;100.00;100956.59;5047097;28;20118;-51
2022/02/15 09:30:08;;;;;;;14.23;3.70;;;;;;;13.53;100.00;100946.88;5038918;28;20128;-48
2022/02/15 09:32:37;;;;;;;12.68;3.58;;;;;;;13.18;100.00;100971.34;5050932;28;20037;-62
2022/02/15 09:35:03;;;;;;;14.10;2.70;;;;;;;12.87;100.00;100954.84;5040988;28;20028;-41
2022/02/15 09:37:28;;;;;;;9.05;2.92;;;;;;;13.45;100.00;100947.94;5043239;28;20045;-41
2022/02/15 09:39:55;;;;;;;12.23;2.37;;;;;;;13.41;100.00;100972.75;5048574;28;20036;-41
2022/02/15 09:42:22;;;;;;;10.70;3.20;;;;;;;13.10;100.00;100968.88;5043919;28;20033;-42
2022/02/15 09:44:48;;;;;;;10.00;3.45;;;;;;;13.01;100.00;100966.41;5043923;28;20033;-46
2022/02/15 09:47:21;;;;;;;14.37;2.73;;;;;;;13.54;100.00;100956.59;5039208;28;20091;-43
2022/02/15 09:49:48;;;;;;;11.03;2.93;;;;;;;15.17;88.62;100957.16;5046997;28;20036;-44
2022/02/15 09:52:15;;;;;;;10.10;2.10;;;;;;;15.16;77.62;100961.72;5045421;28;20301;-48
2022/02/15 09:54:42;;;;;;;14.88;2.63;;;;;;;14.13;89.26;100959.22;5043058;28;20274;-42
2022/02/15 09:57:09;;;;;;;9.70;2.63;;;;;;;13.30;96.81;100969.66;5051867;28;20108;-45
2022/02/15 09:59:34;;;;;;;;;;;;;;;13.87;95.21;100965.56;5048474;28;20278;-48
2022/02/15 10:02:05;;;;;;;9.97;2.67;;;;;;;14.27;94.03;100954.56;5049151;28;19913;-43
2022/02/15 10:04:34;;;;;;;10.13;2.67;;;;;;;15.63;78.75;100963.88;5041323;28;20033;-48
2022/02/15 10:07:05;;;;;;;8.13;2.33;;;;;;;16.03;70.27;100959.91;5049815;28;20328;-46
2022/02/15 10:09:32;;;;;;;13.10;3.10;;;;;;;16.62;65.50;100978.09;5043367;28;20300;-50
2022/02/15 10:12:09;;;;;;;16.55;2.60;;;;;;;18.79;57.41;100969.97;5048296;28;20335;-50
2022/02/15 10:14:36;;;;;;;16.17;2.33;;;;;;;16.95;58.35;101002.91;5037177;28;20489;-46
2022/02/15 10:17:03;;;;;;;13.93;3.53;;;;;;;17.55;59.20;100990.22;5046615;28;20060;-46
2022/02/15 10:19:29;;;;;;;12.05;2.75;;;;;;;17.19;61.13;100978.63;5043968;28;20282;-45
2022/02/15 10:21:58;;;;;;;12.73;2.73;;;;;;;18.37;52.63;101006.38;5046977;28;20040;-45
2022/02/15 10:24:25;;;;;;;11.90;3.00;;;;;;;18.47;52.21;100974.09;5036165;28;20320;-44
2022/02/15 10:27:07;;;;;;;12.13;2.83;;;;;;;19.70;49.15;100978.78;5048140;28;20301;-45
2022/02/15 10:29:36;;;;;;;13.37;2.73;;;;;;;19.08;48.55;100977.19;5044031;28;20306;-47
2022/02/15 10:32:07;;;;;;;12.00;2.70;;;;;;;19.65;48.09;100961.66;5038524;28;20037;-45
2022/02/15 10:34:32;;;;;;;11.37;2.80;;;;;;;19.57;47.20;100965.63;5050058;28;20037;-48
2022/02/15 10:36:59;;;;;;;13.05;3.15;;;;;;;19.80;45.61;100961.00;5038305;28;20047;-47
2022/02/15 10:39:44;;;;;;;19.03;3.40;;;;;;;19.85;44.76;100970.03;5043786;28;20045;-45
2022/02/15 10:42:13;;;;;;;10.40;2.20;;;;;;;19.48;45.22;100981.53;5048913;28;20039;-44
2022/02/15 10:44:49;;;;;;;15.90;2.37;;;;;;;19.40;43.77;100976.56;5036619;28;20025;-48
2022/02/15 10:47:15;;;;;;;12.38;2.60;;;;;;;19.15;42.90;100967.81;5044612;28;20132;-46
2022/02/15 10:49:41;;;;;;;14.60;3.05;;;;;;;19.87;42.12;100967.88;5044240;28;20041;-47
2022/02/15 10:52:08;;;;;;;;;;;;;;;19.66;41.76;100958.69;5053594;28;20123;-49
2022/02/15 10:54:35;;;;;;;7.88;1.60;;;;;;;18.84;42.56;100970.06;5036558;28;19913;-46
2022/02/15 10:57:02;;;;;;;8.80;1.73;;;;;;;17.61;44.18;100945.97;5046667;28;20052;-49
2022/02/15 10:59:33;;;;;;;9.23;1.43;;;;;;;15.99;47.71;100961.38;5033254;28;20045;-44
2022/02/15 11:02:00;;;;;;;8.53;1.53;;;;;;;16.28;48.70;100958.91;5045809;28;20373;-48
2022/02/15 11:04:29;;;;;;;13.63;1.73;;;;;;;16.99;46.19;100965.47;5036519;28;20274;-45
2022/02/15 11:06:55;;;;;;;10.60;1.53;;;;;;;18.86;42.36;100940.00;5047373;28;20815;-43
2022/02/15 11:09:29;;;;;;;6.60;1.30;;;;;;;20.40;40.18;100945.59;5041825;28;20372;-48
2022/02/15 11:12:12;;;;;;;6.67;1.70;;;;;;;20.07;38.29;100963.78;5039003;28;20040;-47
2022/02/15 11:14:37;;;;;;;7.77;1.63;;;;;;;18.77;39.24;100951.25;5049195;28;20294;-47
2022/02/15 11:17:09;;;;;;;9.48;1.50;;;;;;;20.44;37.60;100944.00;5038908;28;20128;-51
2022/02/15 11:19:37;;;;;;;11.50;1.60;;;;;;;21.07;37.00;100928.94;5041806;28;20091;-48
2022/02/15 11:22:09;;;;;;;9.57;1.47;;;;;;;21.70;35.38;100941.72;5046313;28;20489;-47